createdAt,value
2018-07-01T00:00:51.655Z,44.86
2018-07-01T00:03:21.323Z,44.51
2018-07-01T00:05:50.828Z,44.84
2018-07-01T00:08:20.686Z,45.37
2018-07-01T00:10:50.304Z,45.18
2018-07-01T00:13:19.748Z,44.89
2018-07-01T00:15:49.243Z,44.89
2018-07-01T00:18:18.726Z,45.25
2018-07-01T00:20:48.222Z,44.83
2018-07-01T00:23:17.764Z,44.81
2018-07-01T00:25:47.245Z,45.13
2018-07-01T00:28:16.869Z,45.39
2018-07-01T00:30:46.518Z,45.69
2018-07-01T00:33:15.939Z,45.12
2018-07-01T00:35:45.521Z,44.46
2018-07-01T00:38:15.576Z,44.52
2018-07-01T00:40:45.335Z,44.84
2018-07-01T00:43:14.866Z,45.25
2018-07-01T00:45:44.389Z,46.54
2018-07-01T00:48:13.875Z,46.09
2018-07-01T00:50:43.363Z,45.58
2018-07-01T00:53:12.972Z,45.41
2018-07-01T00:55:42.506Z,45.37
2018-07-01T00:58:11.967Z,45.24
2018-07-01T01:00:41.494Z,46.00
2018-07-01T01:03:10.981Z,46.50
2018-07-01T01:05:40.471Z,46.65
2018-07-01T01:08:10.012Z,46.53
2018-07-01T01:10:39.498Z,46.56
2018-07-01T01:13:08.988Z,45.75
2018-07-01T01:15:38.581Z,45.69
2018-07-01T01:18:08.368Z,45.78
2018-07-01T01:20:37.878Z,46.19
2018-07-01T01:23:07.399Z,46.92
2018-07-01T01:25:36.856Z,47.53
2018-07-01T01:28:06.367Z,48.03
2018-07-01T01:30:35.937Z,47.83
2018-07-01T01:33:05.679Z,47.97
2018-07-01T01:35:35.174Z,47.51
2018-07-01T01:38:05.149Z,47.86
2018-07-01T01:40:40.083Z,47.90
2018-07-01T01:43:16.879Z,48.97
2018-07-01T01:45:56.999Z,49.30
2018-07-01T01:48:32.475Z,49.06
2018-07-01T01:53:10.652Z,49.01
2018-07-01T01:55:48.514Z,49.83
2018-07-01T01:58:39.929Z,49.31
2018-07-01T02:01:15.303Z,49.78
2018-07-01T02:03:55.830Z,49.48
2018-07-01T02:06:28.300Z,48.62
2018-07-01T02:09:03.027Z,48.63
2018-07-01T02:11:35.541Z,48.87
2018-07-01T02:14:08.136Z,48.66
2018-07-01T02:16:45.147Z,48.39
2018-07-01T02:19:14.631Z,48.24
2018-07-01T02:21:44.188Z,47.85
2018-07-01T02:24:17.945Z,48.74
2018-07-01T02:26:47.553Z,48.18
2018-07-01T02:29:17.063Z,48.31
2018-07-01T02:31:47.309Z,49.33
2018-07-01T02:34:16.752Z,48.49
2018-07-01T02:36:46.298Z,49.44
2018-07-01T02:39:15.852Z,50.06
2018-07-01T02:41:45.318Z,49.83
2018-07-01T02:44:14.834Z,49.40
2018-07-01T02:46:44.335Z,49.98
2018-07-01T02:49:13.781Z,49.96
2018-07-01T02:51:43.183Z,50.11
2018-07-01T02:54:13.243Z,49.23
2018-07-01T02:56:42.750Z,48.75
2018-07-01T02:59:12.288Z,48.59
2018-07-01T03:01:41.914Z,48.78
2018-07-01T03:04:11.372Z,48.37
2018-07-01T03:06:40.883Z,49.00
2018-07-01T03:09:13.143Z,49.11
2018-07-01T03:11:42.706Z,49.80
2018-07-01T03:14:12.159Z,49.92
2018-07-01T03:16:41.987Z,49.23
2018-07-01T03:19:11.488Z,49.13
2018-07-01T03:21:41.002Z,49.25
2018-07-01T03:24:10.461Z,50.81
2018-07-01T03:26:39.927Z,51.75
2018-07-01T03:29:09.410Z,52.01
2018-07-01T03:31:38.908Z,51.09
2018-07-01T03:34:08.360Z,51.35
2018-07-01T03:36:37.806Z,50.88
2018-07-01T03:39:09.567Z,50.39
2018-07-01T03:41:39.033Z,49.82
2018-07-01T03:44:08.516Z,50.09
2018-07-01T03:46:38.438Z,51.64
2018-07-01T03:49:08.046Z,52.07
2018-07-01T03:51:37.257Z,51.65
2018-07-01T03:54:06.921Z,52.03
2018-07-01T03:56:36.391Z,51.93
2018-07-01T03:59:05.896Z,52.17
2018-07-01T04:01:35.442Z,51.98
2018-07-01T04:04:04.939Z,51.27
2018-07-01T04:06:34.414Z,51.74
2018-07-01T04:09:06.144Z,51.63
2018-07-01T04:11:35.675Z,48.23
2018-07-01T04:14:05.198Z,51.16
2018-07-01T04:16:34.721Z,51.48
2018-07-01T04:19:04.213Z,49.90
2018-07-01T04:21:33.697Z,49.14
2018-07-01T04:24:03.438Z,49.36
2018-07-01T04:26:33.004Z,50.16
2018-07-01T04:29:02.448Z,49.57
2018-07-01T04:31:31.977Z,49.64
2018-07-01T04:34:01.478Z,50.15
2018-07-01T04:36:30.935Z,50.36
2018-07-01T04:39:00.443Z,49.56
2018-07-01T04:41:30.293Z,49.04
2018-07-01T04:43:59.779Z,49.56
2018-07-01T04:46:29.824Z,50.42
2018-07-01T04:48:59.266Z,50.20
2018-07-01T04:51:28.748Z,49.85
2018-07-01T04:53:58.341Z,49.28
2018-07-01T04:56:27.829Z,49.04
2018-07-01T04:58:57.321Z,49.32
2018-07-01T05:01:26.801Z,49.20
2018-07-01T05:03:56.344Z,48.92
2018-07-01T05:06:25.860Z,48.50
2018-07-01T05:08:55.800Z,47.97
2018-07-01T05:11:25.474Z,48.02
2018-07-01T05:13:54.994Z,47.95
2018-07-01T05:16:24.507Z,48.46
2018-07-01T05:18:53.976Z,48.14
2018-07-01T05:21:23.491Z,48.34
2018-07-01T05:23:53.010Z,47.93
2018-07-01T05:26:22.434Z,48.36
2018-07-01T05:28:51.645Z,47.63
2018-07-01T05:31:21.194Z,48.52
2018-07-01T05:33:50.695Z,47.98
2018-07-01T05:36:20.159Z,47.53
2018-07-01T05:38:49.705Z,48.05
2018-07-01T05:41:19.128Z,48.92
2018-07-01T05:43:49.008Z,47.72
2018-07-01T05:46:18.538Z,47.55
2018-07-01T05:48:47.988Z,46.03
2018-07-01T05:51:17.538Z,46.65
2018-07-01T05:53:47.562Z,45.13
2018-07-01T05:56:17.077Z,44.80
2018-07-01T05:58:46.577Z,44.03
2018-07-01T06:01:16.104Z,43.44
2018-07-01T06:03:45.593Z,44.76
2018-07-01T06:06:15.145Z,44.93
2018-07-01T06:08:44.691Z,44.36
2018-07-01T06:11:14.144Z,44.73
2018-07-01T06:13:43.691Z,45.50
2018-07-01T06:16:13.656Z,45.31
2018-07-01T06:18:43.149Z,45.12
2018-07-01T06:21:12.641Z,44.79
2018-07-01T06:23:42.280Z,42.85
2018-07-01T06:26:11.802Z,42.15
2018-07-01T06:28:41.291Z,41.30
2018-07-01T06:31:10.804Z,42.01
2018-07-01T06:33:40.284Z,40.62
2018-07-01T06:36:09.825Z,40.99
2018-07-01T06:38:39.591Z,42.83
2018-07-01T06:41:09.112Z,40.81
2018-07-01T06:43:38.591Z,41.06
2018-07-01T06:46:08.123Z,40.78
2018-07-01T06:48:37.618Z,40.46
2018-07-01T06:51:07.877Z,40.13
2018-07-01T06:53:37.402Z,39.97
2018-07-01T06:56:06.949Z,39.18
2018-07-01T06:58:36.455Z,38.91
2018-07-01T07:01:06.263Z,38.92
2018-07-01T07:03:35.767Z,38.24
2018-07-01T07:06:05.311Z,38.89
2018-07-01T07:08:34.838Z,39.10
2018-07-01T07:11:04.312Z,38.89
2018-07-01T07:13:33.798Z,38.78
2018-07-01T07:16:03.340Z,38.83
2018-07-01T07:18:32.878Z,38.48
2018-07-01T07:21:02.420Z,37.80
2018-07-01T07:23:32.123Z,37.40
2018-07-01T07:26:01.819Z,36.77
2018-07-01T07:28:31.326Z,36.32
2018-07-01T07:31:00.853Z,35.33
2018-07-01T07:33:30.363Z,35.21
2018-07-01T07:35:59.831Z,34.97
2018-07-01T07:38:29.378Z,35.23
2018-07-01T07:40:58.949Z,32.53
2018-07-01T07:43:28.438Z,32.94
2018-07-01T07:45:59.593Z,33.50
2018-07-01T07:48:29.184Z,32.53
2018-07-01T07:50:58.711Z,32.46
2018-07-01T07:53:28.211Z,30.80
2018-07-01T07:55:57.400Z,29.54
2018-07-01T07:58:26.897Z,28.90
2018-07-01T08:00:56.421Z,28.86
2018-07-01T08:03:25.983Z,28.53
2018-07-01T08:05:55.454Z,29.42
2018-07-01T08:08:25.327Z,29.94
2018-07-01T08:10:54.852Z,29.34
2018-07-01T08:13:24.327Z,29.30
2018-07-01T08:15:53.831Z,28.70
2018-07-01T08:18:23.295Z,28.93
2018-07-01T08:20:52.770Z,29.80
2018-07-01T08:23:22.284Z,29.11
2018-07-01T08:25:51.754Z,28.17
2018-07-01T08:28:21.404Z,29.05
2018-07-01T08:30:51.157Z,28.01
2018-07-01T08:33:20.628Z,29.06
2018-07-01T08:35:50.100Z,28.15
2018-07-01T08:38:19.638Z,28.51
2018-07-01T08:40:49.151Z,28.93
2018-07-01T08:43:18.649Z,27.87
2018-07-01T08:45:48.124Z,28.54
2018-07-01T08:48:17.571Z,27.31
2018-07-01T08:50:47.106Z,27.79
2018-07-01T08:53:17.427Z,27.17
2018-07-01T08:55:47.034Z,27.35
2018-07-01T08:58:16.655Z,27.97
2018-07-01T09:00:46.267Z,27.42
2018-07-01T09:03:15.860Z,27.00
2018-07-01T09:05:45.427Z,27.73
2018-07-01T09:08:15.040Z,27.32
2018-07-01T09:10:44.657Z,26.57
2018-07-01T09:13:14.191Z,26.65
2018-07-01T09:15:44.020Z,26.28
2018-07-01T09:18:13.504Z,25.62
2018-07-01T09:20:43.008Z,25.72
2018-07-01T09:23:12.577Z,25.54
2018-07-01T09:25:41.823Z,25.98
2018-07-01T09:28:11.563Z,24.31
2018-07-01T09:30:41.284Z,25.01
2018-07-01T09:33:10.799Z,26.11
2018-07-01T09:35:40.429Z,25.62
2018-07-01T09:38:10.126Z,26.06
2018-07-01T09:40:39.854Z,25.68
2018-07-01T09:43:09.499Z,25.60
2018-07-01T09:45:39.439Z,26.91
2018-07-01T09:48:08.676Z,26.45
2018-07-01T09:50:38.214Z,27.04
2018-07-01T09:53:07.829Z,26.47
2018-07-01T09:55:37.423Z,25.23
2018-07-01T09:58:06.898Z,26.27
2018-07-01T10:00:36.635Z,26.15
2018-07-01T10:03:06.256Z,27.13
2018-07-01T10:05:35.843Z,26.83
2018-07-01T10:08:05.720Z,26.89
2018-07-01T10:10:35.422Z,27.06
2018-07-01T10:13:04.967Z,26.52
2018-07-01T10:15:34.620Z,26.16
2018-07-01T10:18:04.200Z,24.46
2018-07-01T10:20:33.836Z,24.46
2018-07-01T10:23:03.466Z,23.89
2018-07-01T10:25:33.062Z,24.48
2018-07-01T10:28:02.564Z,25.20
2018-07-01T10:30:32.239Z,24.15
2018-07-01T10:33:01.807Z,24.11
2018-07-01T10:35:31.378Z,24.86
2018-07-01T10:38:00.930Z,22.59
2018-07-01T10:40:30.575Z,24.52
2018-07-01T10:43:00.068Z,25.10
2018-07-01T10:45:30.196Z,23.93
2018-07-01T10:47:59.776Z,23.06
2018-07-01T10:50:29.357Z,23.67
2018-07-01T10:52:58.910Z,23.16
2018-07-01T10:55:28.491Z,23.27
2018-07-01T10:57:57.750Z,23.16
2018-07-01T11:00:27.296Z,23.86
2018-07-01T11:02:56.828Z,25.04
2018-07-01T11:05:26.335Z,24.29
2018-07-01T11:07:56.407Z,24.85
2018-07-01T11:10:25.996Z,25.33
2018-07-01T11:12:55.972Z,25.12
2018-07-01T11:15:25.471Z,24.15
2018-07-01T11:17:55.018Z,24.02
2018-07-01T11:20:24.592Z,24.39
2018-07-01T11:22:54.114Z,24.38
2018-07-01T11:25:23.752Z,23.56
2018-07-01T11:27:54.209Z,23.88
2018-07-01T11:30:23.929Z,24.54
2018-07-01T11:32:53.448Z,23.99
2018-07-01T11:35:22.929Z,23.83
2018-07-01T11:37:52.532Z,24.00
2018-07-01T11:40:22.108Z,22.69
2018-07-01T11:42:52.189Z,23.33
2018-07-01T11:45:22.044Z,22.78
2018-07-01T11:47:51.594Z,23.36
2018-07-01T11:50:21.073Z,23.04
2018-07-01T11:52:50.981Z,22.86
2018-07-01T11:55:20.560Z,24.32
2018-07-01T11:57:50.081Z,24.05
2018-07-01T12:00:19.627Z,24.33
2018-07-01T12:02:49.191Z,24.13
2018-07-01T12:05:18.768Z,24.57
2018-07-01T12:07:48.387Z,24.57
2018-07-01T12:10:17.849Z,25.46
2018-07-01T12:12:47.526Z,25.08
2018-07-01T12:15:17.331Z,24.97
2018-07-01T12:17:47.011Z,24.04
2018-07-01T12:20:16.655Z,24.62
2018-07-01T12:22:46.271Z,25.48
2018-07-01T12:25:16.423Z,25.99
2018-07-01T12:27:46.507Z,24.92
2018-07-01T12:30:16.099Z,24.19
2018-07-01T12:32:45.696Z,23.56
2018-07-01T12:35:15.209Z,24.04
2018-07-01T12:37:45.361Z,23.49
2018-07-01T12:40:14.888Z,24.66
2018-07-01T12:42:44.394Z,24.54
2018-07-01T12:45:13.655Z,25.25
2018-07-01T12:47:43.269Z,24.05
2018-07-01T12:50:12.711Z,24.05
2018-07-01T12:52:42.275Z,24.32
2018-07-01T12:55:11.855Z,25.05
2018-07-01T12:57:41.300Z,23.79
2018-07-01T13:00:11.313Z,24.21
2018-07-01T13:02:40.780Z,24.60
2018-07-01T13:05:10.326Z,24.53
2018-07-01T13:07:39.826Z,23.87
2018-07-01T13:10:09.642Z,24.96
2018-07-01T13:12:39.154Z,24.08
2018-07-01T13:15:08.739Z,23.76
2018-07-01T13:17:38.272Z,23.96
2018-07-01T13:20:07.870Z,23.38
2018-07-01T13:22:37.582Z,22.70
2018-07-01T13:25:07.339Z,23.18
2018-07-01T13:27:36.884Z,22.56
2018-07-01T13:30:06.773Z,23.48
2018-07-01T13:32:36.327Z,22.61
2018-07-01T13:35:06.019Z,23.26
2018-07-01T13:37:35.614Z,22.53
2018-07-01T13:40:05.286Z,22.86
2018-07-01T13:42:34.539Z,22.47
2018-07-01T13:45:04.594Z,23.16
2018-07-01T13:47:34.276Z,22.17
2018-07-01T13:50:04.015Z,23.23
2018-07-01T13:52:33.560Z,23.01
2018-07-01T13:55:03.342Z,23.15
2018-07-01T13:57:32.986Z,22.31
2018-07-01T14:00:02.502Z,22.26
2018-07-01T14:02:32.013Z,22.77
2018-07-01T14:05:01.525Z,23.62
2018-07-01T14:07:31.394Z,22.93
2018-07-01T14:10:00.975Z,22.55
2018-07-01T14:12:30.456Z,23.36
2018-07-01T14:15:00.115Z,22.59
2018-07-01T14:17:29.731Z,22.82
2018-07-01T14:19:59.254Z,23.08
2018-07-01T14:22:29.067Z,22.66
2018-07-01T14:24:58.748Z,22.63
2018-07-01T14:27:28.211Z,22.99
2018-07-01T14:29:58.180Z,22.63
2018-07-01T14:32:28.630Z,22.50
2018-07-01T14:34:58.853Z,22.54
2018-07-01T14:37:28.968Z,23.79
2018-07-01T14:39:58.577Z,23.11
2018-07-01T14:42:28.082Z,22.90
2018-07-01T14:44:57.885Z,23.30
2018-07-01T14:47:27.487Z,23.39
2018-07-01T14:49:56.995Z,23.59
2018-07-01T14:52:28.779Z,23.45
2018-07-01T14:54:59.716Z,22.64
2018-07-01T14:57:30.978Z,23.09
2018-07-01T15:00:00.552Z,22.44
2018-07-01T15:02:31.611Z,22.70
2018-07-01T15:05:01.220Z,22.82
2018-07-01T15:07:31.555Z,22.57
2018-07-01T15:10:01.184Z,23.35
2018-07-01T15:12:31.075Z,22.86
2018-07-01T15:15:00.605Z,23.35
2018-07-01T15:17:30.082Z,23.94
2018-07-01T15:19:59.675Z,23.89
2018-07-01T15:22:29.168Z,23.65
2018-07-01T15:24:59.637Z,24.07
2018-07-01T15:27:29.210Z,24.58
2018-07-01T15:29:58.688Z,24.11
2018-07-01T15:32:28.195Z,23.89
2018-07-01T15:34:58.212Z,24.40
2018-07-01T15:37:27.839Z,24.81
2018-07-01T15:39:57.431Z,24.95
2018-07-01T15:42:26.961Z,24.64
2018-07-01T15:44:56.589Z,25.12
2018-07-01T15:47:26.155Z,24.38
2018-07-01T15:49:55.729Z,24.37
2018-07-01T15:52:25.228Z,24.31
2018-07-01T15:54:54.867Z,23.98
2018-07-01T15:57:24.650Z,25.04
2018-07-01T15:59:54.231Z,23.89
2018-07-01T16:02:23.900Z,24.74
2018-07-01T16:04:53.577Z,24.38
2018-07-01T16:07:23.086Z,24.09
2018-07-01T16:09:52.716Z,24.77
2018-07-01T16:12:22.399Z,25.22
2018-07-01T16:14:52.074Z,24.90
2018-07-01T16:17:21.599Z,25.54
2018-07-01T16:19:51.587Z,24.85
2018-07-01T16:22:21.134Z,24.54
2018-07-01T16:24:55.780Z,24.11
2018-07-01T16:27:32.342Z,23.83
2018-07-01T16:30:04.812Z,24.66
2018-07-01T16:32:35.522Z,24.71
2018-07-01T16:35:05.803Z,24.06
2018-07-01T16:37:35.331Z,24.50
2018-07-01T16:40:05.092Z,23.69
2018-07-01T16:42:34.570Z,24.41
2018-07-01T16:45:04.151Z,24.02
2018-07-01T16:47:33.660Z,24.83
2018-07-01T16:50:03.351Z,24.10
2018-07-01T16:52:32.895Z,23.94
2018-07-01T16:55:02.348Z,24.25
2018-07-01T16:57:32.195Z,24.99
2018-07-01T17:00:01.742Z,24.39
2018-07-01T17:02:31.314Z,24.24
2018-07-01T17:05:00.968Z,25.22
2018-07-01T17:07:30.631Z,25.50
2018-07-01T17:10:00.182Z,25.18
2018-07-01T17:12:29.731Z,24.80
2018-07-01T17:14:59.281Z,25.14
2018-07-01T17:17:28.768Z,24.78
2018-07-01T17:19:58.559Z,25.00
2018-07-01T17:22:28.170Z,25.24
2018-07-01T17:24:57.719Z,24.80
2018-07-01T17:27:27.321Z,25.01
2018-07-01T17:29:56.860Z,24.76
2018-07-01T17:32:31.677Z,25.54
2018-07-01T17:35:01.311Z,24.93
2018-07-01T17:37:30.807Z,25.08
2018-07-01T17:40:00.926Z,25.52
2018-07-01T17:42:30.399Z,25.15
2018-07-01T17:44:59.972Z,25.54
2018-07-01T17:47:29.475Z,25.52
2018-07-01T17:49:59.040Z,26.11
2018-07-01T17:52:28.581Z,25.97
2018-07-01T17:54:58.160Z,25.53
2018-07-01T17:57:27.790Z,25.92
2018-07-01T17:59:57.397Z,25.07
2018-07-01T18:02:27.020Z,25.65
2018-07-01T18:04:56.524Z,25.39
2018-07-01T18:07:25.810Z,26.19
2018-07-01T18:09:55.437Z,26.55
2018-07-01T18:12:24.930Z,26.50
2018-07-01T18:14:54.893Z,26.29
2018-07-01T18:17:24.660Z,25.93
2018-07-01T18:19:53.955Z,27.17
2018-07-01T18:22:52.493Z,27.36
2018-07-01T18:25:01.547Z,27.35
2018-07-01T18:27:22.604Z,27.38
2018-07-01T18:29:52.151Z,27.89
2018-07-01T18:32:21.754Z,27.42
2018-07-01T18:34:51.281Z,28.04
2018-07-01T18:37:20.906Z,27.92
2018-07-01T18:39:50.548Z,28.15
2018-07-01T18:42:20.054Z,28.52
2018-07-01T18:44:49.603Z,28.79
2018-07-01T18:47:19.949Z,29.12
2018-07-01T18:49:49.351Z,30.61
2018-07-01T18:52:19.067Z,30.34
2018-07-01T18:54:48.654Z,30.16
2018-07-01T18:57:18.305Z,31.21
2018-07-01T18:59:47.834Z,30.98
2018-07-01T19:02:17.529Z,31.58
2018-07-01T19:04:47.009Z,31.91
2018-07-01T19:07:16.822Z,31.92
2018-07-01T19:09:46.643Z,31.77
2018-07-01T19:12:16.214Z,32.11
2018-07-01T19:14:46.097Z,32.00
2018-07-01T19:17:15.737Z,32.67
2018-07-01T19:19:45.218Z,32.74
2018-07-01T19:22:14.777Z,32.68
2018-07-01T19:24:44.711Z,32.92
2018-07-01T19:27:14.463Z,32.33
2018-07-01T19:29:44.057Z,32.79
2018-07-01T19:32:13.793Z,32.79
2018-07-01T19:34:43.423Z,33.67
2018-07-01T19:37:12.964Z,33.41
2018-07-01T19:39:42.501Z,33.03
2018-07-01T19:42:12.225Z,33.31
2018-07-01T19:44:41.979Z,33.84
2018-07-01T19:47:11.636Z,33.73
2018-07-01T19:49:41.103Z,34.28
2018-07-01T19:52:10.631Z,33.91
2018-07-01T19:54:40.377Z,34.18
2018-07-01T19:57:09.944Z,34.31
2018-07-01T19:59:39.561Z,34.47
2018-07-01T20:02:09.136Z,34.11
2018-07-01T20:04:38.707Z,34.85
2018-07-01T20:07:08.383Z,34.20
2018-07-01T20:09:38.077Z,34.93
2018-07-01T20:12:08.768Z,34.68
2018-07-01T20:14:39.135Z,33.72
2018-07-01T20:17:09.192Z,34.20
2018-07-01T20:19:38.844Z,34.78
2018-07-01T20:22:08.670Z,34.36
2018-07-01T20:24:38.250Z,35.15
2018-07-01T20:27:08.075Z,35.29
2018-07-01T20:29:38.017Z,34.65
2018-07-01T20:32:07.970Z,34.58
2018-07-01T20:34:38.936Z,34.56
2018-07-01T20:37:08.770Z,34.65
2018-07-01T20:39:38.354Z,35.62
2018-07-01T20:42:08.014Z,35.78
2018-07-01T20:44:37.602Z,35.74
2018-07-01T20:47:07.257Z,35.73
2018-07-01T20:49:36.944Z,35.64
2018-07-01T20:52:06.501Z,35.40
2018-07-01T20:54:36.125Z,36.35
2018-07-01T20:57:05.827Z,36.58
2018-07-01T20:59:35.555Z,36.44
2018-07-01T21:02:05.784Z,36.52
2018-07-01T21:04:35.824Z,36.39
2018-07-01T21:07:05.578Z,35.85
2018-07-01T21:09:35.180Z,36.36
2018-07-01T21:12:04.802Z,36.10
2018-07-01T21:14:34.406Z,36.22
2018-07-01T21:17:03.975Z,36.50
2018-07-01T21:19:33.728Z,37.17
2018-07-01T21:22:03.091Z,37.04
2018-07-01T21:24:32.438Z,37.68
2018-07-01T21:27:02.210Z,37.51
2018-07-01T21:29:31.498Z,37.87
2018-07-01T21:32:00.960Z,37.25
2018-07-01T21:34:30.390Z,37.78
2018-07-01T21:36:59.862Z,37.57
2018-07-01T21:39:29.284Z,37.83
2018-07-01T21:41:58.688Z,37.93
2018-07-01T21:44:28.055Z,37.78
2018-07-01T21:46:57.447Z,38.30
2018-07-01T21:49:26.835Z,37.95
2018-07-01T21:51:56.199Z,38.07
2018-07-01T21:54:25.643Z,38.14
2018-07-01T21:56:56.515Z,38.13
2018-07-01T21:59:26.950Z,38.04
2018-07-01T22:01:56.662Z,38.96
2018-07-01T22:04:26.370Z,38.73
2018-07-01T22:07:00.089Z,38.36
2018-07-01T22:09:30.652Z,39.00
2018-07-01T22:12:16.952Z,39.60
2018-07-01T22:15:03.119Z,39.35
2018-07-01T22:17:32.527Z,39.83
2018-07-01T22:20:02.077Z,39.86
2018-07-01T22:22:31.863Z,40.51
2018-07-01T22:25:01.528Z,40.49
2018-07-01T22:27:31.073Z,41.22
2018-07-01T22:30:00.854Z,40.72
2018-07-01T22:32:30.350Z,40.46
2018-07-01T22:34:59.574Z,40.85
2018-07-01T22:37:29.155Z,41.55
2018-07-01T22:39:58.873Z,41.34
2018-07-01T22:42:28.168Z,41.45
2018-07-01T22:44:57.946Z,41.60
2018-07-01T22:47:27.490Z,42.11
2018-07-01T22:49:57.382Z,42.58
2018-07-01T22:52:27.106Z,42.54
2018-07-01T22:54:56.724Z,43.10
2018-07-01T22:57:26.164Z,43.74
2018-07-01T22:59:55.779Z,42.42
2018-07-01T23:03:08.656Z,42.44
2018-07-01T23:05:38.425Z,42.03
2018-07-01T23:08:08.070Z,42.07
2018-07-01T23:10:37.674Z,42.73
2018-07-01T23:13:07.233Z,42.88
2018-07-01T23:15:36.717Z,42.76
2018-07-01T23:18:06.135Z,42.41
2018-07-01T23:20:35.694Z,42.16
2018-07-01T23:23:05.241Z,41.98
2018-07-01T23:25:34.668Z,42.49
2018-07-01T23:28:04.111Z,43.47
2018-07-01T23:30:33.720Z,42.87
2018-07-01T23:33:03.101Z,42.81
2018-07-01T23:35:32.539Z,43.00
2018-07-01T23:38:01.978Z,42.84
2018-07-01T23:40:31.529Z,43.23
2018-07-01T23:43:01.106Z,43.34
2018-07-01T23:45:30.623Z,43.27
2018-07-01T23:47:59.875Z,44.19
2018-07-01T23:50:29.787Z,44.88
2018-07-01T23:52:59.071Z,44.14
2018-07-01T23:55:28.545Z,44.28
2018-07-01T23:57:57.912Z,44.34
